sensor_id;sensor_type;location;lat;lon;timestamp;pressure;altitude;pressure_sealevel;temperature;humidity
53522;BME280;39398;48.382;9.802;2023-05-20T00:03:18;93878.69;;;11.17;100.00
53522;BME280;39398;48.382;9.802;2023-05-20T00:08:20;93881.44;;;11.03;100.00
53522;BME280;39398;48.382;9.802;2023-05-20T00:13:23;93872.50;;;11.04;100.00
53522;BME280;39398;48.382;9.802;2023-05-20T00:18:25;93873.34;;;11.04;100.00
53522;BME280;39398;48.382;9.802;2023-05-20T00:23:26;93870.09;;;11.09;100.00
53522;BME280;39398;48.382;9.802;2023-05-20T00:28:29;93863.75;;;10.97;100.00
53522;BME280;39398;48.382;9.802;2023-05-20T00:33:31;93860.94;;;11.05;100.00
53522;BME280;39398;48.382;9.802;2023-05-20T00:38:33;93859.53;;;11.09;100.00
53522;BME280;39398;48.382;9.802;2023-05-20T00:43:36;93849.09;;;10.94;100.00
53522;BME280;39398;48.382;9.802;2023-05-20T00:48:40;93853.41;;;11.02;100.00
53522;BME280;39398;48.382;9.802;2023-05-20T00:53:42;93848.53;;;10.99;100.00
53522;BME280;39398;48.382;9.802;2023-05-20T00:58:45;93846.78;;;10.78;100.00
53522;BME280;39398;48.382;9.802;2023-05-20T01:03:47;93839.84;;;10.70;100.00
53522;BME280;39398;48.382;9.802;2023-05-20T01:08:49;93841.72;;;10.83;100.00
53522;BME280;39398;48.382;9.802;2023-05-20T01:13:54;93841.50;;;10.78;100.00
53522;BME280;39398;48.382;9.802;2023-05-20T01:18:57;93838.66;;;10.79;100.00
53522;BME280;39398;48.382;9.802;2023-05-20T01:24:00;93836.56;;;10.68;100.00
53522;BME280;39398;48.382;9.802;2023-05-20T01:29:02;93839.84;;;10.70;100.00
53522;BME280;39398;48.382;9.802;2023-05-20T01:34:05;93844.44;;;10.61;100.00
53522;BME280;39398;48.382;9.802;2023-05-20T01:39:08;93839.75;;;10.57;100.00
53522;BME280;39398;48.382;9.802;2023-05-20T01:44:10;93826.31;;;10.52;100.00
53522;BME280;39398;48.382;9.802;2023-05-20T01:49:11;93830.47;;;10.67;100.00
53522;BME280;39398;48.382;9.802;2023-05-20T01:54:14;93819.13;;;10.74;100.00
53522;BME280;39398;48.382;9.802;2023-05-20T01:59:16;93821.75;;;10.67;100.00
53522;BME280;39398;48.382;9.802;2023-05-20T02:04:18;93819.34;;;10.72;100.00
53522;BME280;39398;48.382;9.802;2023-05-20T02:09:21;93830.38;;;10.89;100.00
53522;BME280;39398;48.382;9.802;2023-05-20T02:14:22;93827.69;;;10.76;100.00
53522;BME280;39398;48.382;9.802;2023-05-20T02:19:24;93828.09;;;10.79;100.00
53522;BME280;39398;48.382;9.802;2023-05-20T02:24:28;93823.94;;;10.98;100.00
53522;BME280;39398;48.382;9.802;2023-05-20T02:29:29;93815.00;;;10.99;100.00
53522;BME280;39398;48.382;9.802;2023-05-20T02:34:31;93814.97;;;10.92;100.00
53522;BME280;39398;48.382;9.802;2023-05-20T02:39:35;93813.13;;;10.93;100.00
53522;BME280;39398;48.382;9.802;2023-05-20T02:44:36;93822.97;;;11.12;100.00
53522;BME280;39398;48.382;9.802;2023-05-20T02:49:38;93826.38;;;11.00;100.00
53522;BME280;39398;48.382;9.802;2023-05-20T02:54:41;93809.50;;;11.01;100.00
53522;BME280;39398;48.382;9.802;2023-05-20T02:59:42;93828.13;;;10.86;100.00
53522;BME280;39398;48.382;9.802;2023-05-20T03:04:44;93819.44;;;10.92;100.00
53522;BME280;39398;48.382;9.802;2023-05-20T03:09:47;93814.16;;;10.92;100.00
53522;BME280;39398;48.382;9.802;2023-05-20T03:14:49;93812.72;;;10.89;100.00
53522;BME280;39398;48.382;9.802;2023-05-20T03:19:51;93820.19;;;10.79;100.00
53522;BME280;39398;48.382;9.802;2023-05-20T03:24:53;93815.84;;;11.13;100.00
53522;BME280;39398;48.382;9.802;2023-05-20T03:29:55;93816.13;;;10.83;100.00
53522;BME280;39398;48.382;9.802;2023-05-20T03:34:57;93801.34;;;10.89;100.00
53522;BME280;39398;48.382;9.802;2023-05-20T03:40:00;93802.47;;;10.73;100.00
53522;BME280;39398;48.382;9.802;2023-05-20T03:45:02;93799.06;;;10.79;100.00
53522;BME280;39398;48.382;9.802;2023-05-20T03:50:05;93809.94;;;10.63;100.00
53522;BME280;39398;48.382;9.802;2023-05-20T03:55:08;93810.47;;;10.86;100.00
53522;BME280;39398;48.382;9.802;2023-05-20T04:00:11;93807.06;;;10.58;100.00
53522;BME280;39398;48.382;9.802;2023-05-20T04:05:12;93808.16;;;10.70;100.00
53522;BME280;39398;48.382;9.802;2023-05-20T04:10:17;93802.41;;;10.60;100.00
53522;BME280;39398;48.382;9.802;2023-05-20T04:15:19;93800.78;;;10.65;100.00
53522;BME280;39398;48.382;9.802;2023-05-20T04:20:21;93799.59;;;10.68;100.00
53522;BME280;39398;48.382;9.802;2023-05-20T04:25:24;93813.34;;;10.57;100.00
53522;BME280;39398;48.382;9.802;2023-05-20T04:30:26;93809.97;;;10.35;100.00
53522;BME280;39398;48.382;9.802;2023-05-20T04:35:27;93815.03;;;10.36;100.00
53522;BME280;39398;48.382;9.802;2023-05-20T04:40:30;93807.31;;;10.35;100.00
53522;BME280;39398;48.382;9.802;2023-05-20T04:45:32;93806.38;;;10.49;100.00
53522;BME280;39398;48.382;9.802;2023-05-20T04:50:34;93804.44;;;10.30;100.00
53522;BME280;39398;48.382;9.802;2023-05-20T04:55:38;93801.78;;;10.30;100.00
53522;BME280;39398;48.382;9.802;2023-05-20T05:00:40;93805.16;;;10.23;100.00
53522;BME280;39398;48.382;9.802;2023-05-20T05:05:42;93793.47;;;10.26;100.00
53522;BME280;39398;48.382;9.802;2023-05-20T05:10:46;93800.66;;;10.39;100.00
53522;BME280;39398;48.382;9.802;2023-05-20T05:15:47;93805.06;;;10.60;100.00
53522;BME280;39398;48.382;9.802;2023-05-20T05:20:49;93800.78;;;10.65;100.00
53522;BME280;39398;48.382;9.802;2023-05-20T05:25:52;93802.75;;;10.85;100.00
53522;BME280;39398;48.382;9.802;2023-05-20T05:30:54;93800.91;;;10.85;100.00
53522;BME280;39398;48.382;9.802;2023-05-20T05:35:56;93799.75;;;10.94;100.00
53522;BME280;39398;48.382;9.802;2023-05-20T05:40:59;93794.38;;;10.81;100.00
53522;BME280;39398;48.382;9.802;2023-05-20T05:46:00;93782.06;;;10.95;100.00
53522;BME280;39398;48.382;9.802;2023-05-20T05:51:03;93782.47;;;10.92;100.00
53522;BME280;39398;48.382;9.802;2023-05-20T05:56:06;93782.00;;;10.40;100.00
53522;BME280;39398;48.382;9.802;2023-05-20T06:01:08;93779.97;;;10.42;100.00
53522;BME280;39398;48.382;9.802;2023-05-20T06:06:10;93781.31;;;10.66;100.00
53522;BME280;39398;48.382;9.802;2023-05-20T06:11:13;93778.34;;;10.83;100.00
53522;BME280;39398;48.382;9.802;2023-05-20T06:16:15;93769.66;;;10.96;100.00
53522;BME280;39398;48.382;9.802;2023-05-20T06:21:16;93771.91;;;10.99;100.00
53522;BME280;39398;48.382;9.802;2023-05-20T06:26:19;93772.66;;;11.47;100.00
53522;BME280;39398;48.382;9.802;2023-05-20T06:31:21;93771.31;;;11.03;100.00
53522;BME280;39398;48.382;9.802;2023-05-20T06:36:23;93771.63;;;10.80;100.00
53522;BME280;39398;48.382;9.802;2023-05-20T06:41:26;93774.94;;;10.89;100.00
53522;BME280;39398;48.382;9.802;2023-05-20T06:46:27;93785.94;;;10.58;100.00
53522;BME280;39398;48.382;9.802;2023-05-20T06:51:29;93785.69;;;10.94;100.00
53522;BME280;39398;48.382;9.802;2023-05-20T06:56:32;93783.28;;;10.92;100.00
53522;BME280;39398;48.382;9.802;2023-05-20T07:01:34;93783.41;;;11.39;100.00
53522;BME280;39398;48.382;9.802;2023-05-20T07:06:36;93782.00;;;11.30;100.00
53522;BME280;39398;48.382;9.802;2023-05-20T07:11:39;93767.34;;;11.34;100.00
53522;BME280;39398;48.382;9.802;2023-05-20T07:16:40;93776.94;;;11.48;100.00
53522;BME280;39398;48.382;9.802;2023-05-20T07:21:42;93756.41;;;11.63;100.00
53522;BME280;39398;48.382;9.802;2023-05-20T07:26:45;93737.28;;;11.48;100.00
53522;BME280;39398;48.382;9.802;2023-05-20T07:31:47;93748.47;;;11.37;100.00
53522;BME280;39398;48.382;9.802;2023-05-20T07:36:48;93740.81;;;11.01;100.00
53522;BME280;39398;48.382;9.802;2023-05-20T07:41:51;93750.31;;;11.43;100.00
53522;BME280;39398;48.382;9.802;2023-05-20T07:46:53;93749.09;;;11.59;100.00
53522;BME280;39398;48.382;9.802;2023-05-20T07:51:55;93744.00;;;11.51;100.00
53522;BME280;39398;48.382;9.802;2023-05-20T07:56:58;93750.94;;;11.65;100.00
53522;BME280;39398;48.382;9.802;2023-05-20T08:02:00;93743.44;;;11.89;100.00
53522;BME280;39398;48.382;9.802;2023-05-20T08:07:02;93749.53;;;12.02;100.00
53522;BME280;39398;48.382;9.802;2023-05-20T08:12:06;93753.44;;;12.00;100.00
53522;BME280;39398;48.382;9.802;2023-05-20T08:17:07;93747.31;;;12.19;100.00
53522;BME280;39398;48.382;9.802;2023-05-20T08:22:09;93741.69;;;12.74;100.00
53522;BME280;39398;48.382;9.802;2023-05-20T08:27:12;93748.72;;;11.95;100.00
53522;BME280;39398;48.382;9.802;2023-05-20T08:32:13;93752.66;;;12.84;100.00
53522;BME280;39398;48.382;9.802;2023-05-20T08:37:15;93758.94;;;12.90;100.00
53522;BME280;39398;48.382;9.802;2023-05-20T08:42:20;93749.66;;;13.25;100.00
53522;BME280;39398;48.382;9.802;2023-05-20T08:47:23;93744.03;;;13.02;100.00
53522;BME280;39398;48.382;9.802;2023-05-20T08:52:25;93734.81;;;12.46;100.00
53522;BME280;39398;48.382;9.802;2023-05-20T08:57:28;93736.13;;;12.10;100.00
53522;BME280;39398;48.382;9.802;2023-05-20T09:02:30;93744.78;;;12.57;100.00
53522;BME280;39398;48.382;9.802;2023-05-20T09:07:32;93756.97;;;12.72;100.00
53522;BME280;39398;48.382;9.802;2023-05-20T09:12:35;93753.16;;;12.48;100.00
53522;BME280;39398;48.382;9.802;2023-05-20T09:17:37;93741.03;;;12.85;100.00
53522;BME280;39398;48.382;9.802;2023-05-20T09:22:39;93740.34;;;13.80;100.00
53522;BME280;39398;48.382;9.802;2023-05-20T09:27:42;93751.09;;;13.60;100.00
53522;BME280;39398;48.382;9.802;2023-05-20T09:32:44;93748.88;;;14.07;100.00
53522;BME280;39398;48.382;9.802;2023-05-20T09:37:46;93736.63;;;14.31;100.00
53522;BME280;39398;48.382;9.802;2023-05-20T09:42:52;93727.94;;;14.42;100.00
53522;BME280;39398;48.382;9.802;2023-05-20T09:47:54;93731.88;;;14.39;100.00
53522;BME280;39398;48.382;9.802;2023-05-20T09:53:01;93721.09;;;15.26;100.00
53522;BME280;39398;48.382;9.802;2023-05-20T09:58:04;93725.44;;;15.81;100.00
53522;BME280;39398;48.382;9.802;2023-05-20T10:03:06;93717.31;;;15.76;100.00
53522;BME280;39398;48.382;9.802;2023-05-20T10:08:25;93721.81;;;15.15;100.00
53522;BME280;39398;48.382;9.802;2023-05-20T10:13:52;93715.59;;;14.73;100.00
53522;BME280;39398;48.382;9.802;2023-05-20T10:19:07;93706.38;;;15.54;100.00
53522;BME280;39398;48.382;9.802;2023-05-20T10:24:12;93702.69;;;15.55;100.00
53522;BME280;39398;48.382;9.802;2023-05-20T10:29:15;93695.97;;;15.83;100.00
53522;BME280;39398;48.382;9.802;2023-05-20T10:34:18;93701.88;;;15.66;100.00
53522;BME280;39398;48.382;9.802;2023-05-20T10:39:25;93697.81;;;16.64;100.00
53522;BME280;39398;48.382;9.802;2023-05-20T10:44:39;93696.31;;;16.45;100.00
53522;BME280;39398;48.382;9.802;2023-05-20T10:49:43;93690.88;;;16.40;100.00
53522;BME280;39398;48.382;9.802;2023-05-20T10:54:46;93676.97;;;15.49;100.00
53522;BME280;39398;48.382;9.802;2023-05-20T10:59:54;93683.47;;;16.07;100.00
53522;BME280;39398;48.382;9.802;2023-05-20T11:04:55;93681.34;;;16.79;100.00
53522;BME280;39398;48.382;9.802;2023-05-20T11:09:57;93674.66;;;16.41;100.00
53522;BME280;39398;48.382;9.802;2023-05-20T11:15:00;93669.69;;;16.21;100.00
53522;BME280;39398;48.382;9.802;2023-05-20T11:20:02;93671.16;;;15.70;100.00
53522;BME280;39398;48.382;9.802;2023-05-20T11:25:05;93672.22;;;15.81;100.00
53522;BME280;39398;48.382;9.802;2023-05-20T11:30:09;93684.13;;;16.72;100.00
53522;BME280;39398;48.382;9.802;2023-05-20T11:35:20;93674.34;;;17.02;100.00
53522;BME280;39398;48.382;9.802;2023-05-20T11:40:23;93670.91;;;17.47;100.00
53522;BME280;39398;48.382;9.802;2023-05-20T11:45:38;93660.38;;;17.11;100.00
53522;BME280;39398;48.382;9.802;2023-05-20T11:50:41;93658.38;;;17.64;100.00
53522;BME280;39398;48.382;9.802;2023-05-20T11:55:44;93656.44;;;17.59;100.00
53522;BME280;39398;48.382;9.802;2023-05-20T12:00:47;93643.13;;;17.93;100.00
53522;BME280;39398;48.382;9.802;2023-05-20T12:06:02;93649.50;;;18.09;100.00
53522;BME280;39398;48.382;9.802;2023-05-20T12:11:04;93644.63;;;18.40;100.00
53522;BME280;39398;48.382;9.802;2023-05-20T12:16:07;93658.25;;;18.21;100.00
53522;BME280;39398;48.382;9.802;2023-05-20T12:21:09;93636.53;;;17.33;100.00
53522;BME280;39398;48.382;9.802;2023-05-20T12:26:10;93630.81;;;17.13;100.00
53522;BME280;39398;48.382;9.802;2023-05-20T12:31:13;93643.06;;;18.05;100.00
53522;BME280;39398;48.382;9.802;2023-05-20T12:36:15;93633.44;;;17.41;100.00
53522;BME280;39398;48.382;9.802;2023-05-20T12:41:17;93626.44;;;16.66;100.00
53522;BME280;39398;48.382;9.802;2023-05-20T12:46:20;93638.28;;;17.28;100.00
53522;BME280;39398;48.382;9.802;2023-05-20T12:51:21;93643.03;;;18.22;100.00
53522;BME280;39398;48.382;9.802;2023-05-20T12:56:23;93631.34;;;18.45;100.00
53522;BME280;39398;48.382;9.802;2023-05-20T13:01:26;93625.69;;;18.41;100.00
53522;BME280;39398;48.382;9.802;2023-05-20T13:06:28;93630.72;;;17.36;100.00
53522;BME280;39398;48.382;9.802;2023-05-20T13:11:30;93626.97;;;17.37;100.00
53522;BME280;39398;48.382;9.802;2023-05-20T13:16:33;93630.63;;;17.48;100.00
53522;BME280;39398;48.382;9.802;2023-05-20T13:21:35;93613.03;;;18.36;100.00
53522;BME280;39398;48.382;9.802;2023-05-20T13:26:36;93609.00;;;18.34;100.00
53522;BME280;39398;48.382;9.802;2023-05-20T13:31:39;93611.59;;;18.90;100.00
53522;BME280;39398;48.382;9.802;2023-05-20T13:36:41;93594.56;;;18.13;100.00
53522;BME280;39398;48.382;9.802;2023-05-20T13:41:43;93587.59;;;18.12;100.00
53522;BME280;39398;48.382;9.802;2023-05-20T13:46:46;93576.97;;;17.78;100.00
53522;BME280;39398;48.382;9.802;2023-05-20T13:51:47;93570.97;;;18.49;100.00
53522;BME280;39398;48.382;9.802;2023-05-20T13:56:49;93582.34;;;19.05;100.00
53522;BME280;39398;48.382;9.802;2023-05-20T14:01:53;93575.13;;;19.05;100.00
53522;BME280;39398;48.382;9.802;2023-05-20T14:06:55;93559.44;;;18.04;100.00
53522;BME280;39398;48.382;9.802;2023-05-20T14:11:56;93556.00;;;18.48;100.00
53522;BME280;39398;48.382;9.802;2023-05-20T14:16:59;93554.78;;;18.77;100.00
53522;BME280;39398;48.382;9.802;2023-05-20T14:22:01;93556.72;;;18.21;100.00
53522;BME280;39398;48.382;9.802;2023-05-20T14:27:03;93548.00;;;18.48;100.00
53522;BME280;39398;48.382;9.802;2023-05-20T14:32:06;93550.06;;;19.17;100.00
53522;BME280;39398;48.382;9.802;2023-05-20T14:37:08;93537.22;;;18.87;100.00
53522;BME280;39398;48.382;9.802;2023-05-20T14:42:10;93534.28;;;19.47;100.00
53522;BME280;39398;48.382;9.802;2023-05-20T14:47:13;93529.16;;;19.73;100.00
53522;BME280;39398;48.382;9.802;2023-05-20T14:52:15;93530.88;;;19.89;100.00
53522;BME280;39398;48.382;9.802;2023-05-20T14:57:17;93532.63;;;19.09;100.00
53522;BME280;39398;48.382;9.802;2023-05-20T15:02:20;93528.44;;;18.91;100.00
53522;BME280;39398;48.382;9.802;2023-05-20T15:07:23;93536.03;;;19.32;100.00
53522;BME280;39398;48.382;9.802;2023-05-20T15:12:24;93538.94;;;19.94;100.00
53522;BME280;39398;48.382;9.802;2023-05-20T15:17:27;93537.81;;;20.33;100.00
53522;BME280;39398;48.382;9.802;2023-05-20T15:22:29;93540.38;;;20.12;100.00
53522;BME280;39398;48.382;9.802;2023-05-20T15:27:30;93548.06;;;20.46;100.00
53522;BME280;39398;48.382;9.802;2023-05-20T15:32:33;93542.31;;;20.80;100.00
53522;BME280;39398;48.382;9.802;2023-05-20T15:37:35;93537.75;;;20.23;100.00
53522;BME280;39398;48.382;9.802;2023-05-20T15:42:37;93528.81;;;19.32;100.00
53522;BME280;39398;48.382;9.802;2023-05-20T15:47:40;93511.38;;;19.29;100.00
53522;BME280;39398;48.382;9.802;2023-05-20T15:52:43;93511.72;;;19.38;100.00
53522;BME280;39398;48.382;9.802;2023-05-20T15:57:44;93506.88;;;19.03;100.00
53522;BME280;39398;48.382;9.802;2023-05-20T16:02:47;93510.94;;;19.38;100.00
53522;BME280;39398;48.382;9.802;2023-05-20T16:07:49;93514.41;;;19.38;100.00
53522;BME280;39398;48.382;9.802;2023-05-20T16:12:51;93514.47;;;19.43;100.00
53522;BME280;39398;48.382;9.802;2023-05-20T16:17:54;93517.06;;;19.06;100.00
53522;BME280;39398;48.382;9.802;2023-05-20T16:22:56;93519.19;;;19.36;100.00
53522;BME280;39398;48.382;9.802;2023-05-20T16:27:58;93518.91;;;19.33;100.00
53522;BME280;39398;48.382;9.802;2023-05-20T16:33:01;93513.53;;;19.27;100.00
53522;BME280;39398;48.382;9.802;2023-05-20T16:38:02;93518.13;;;18.78;100.00
53522;BME280;39398;48.382;9.802;2023-05-20T16:43:04;93519.03;;;18.89;100.00
53522;BME280;39398;48.382;9.802;2023-05-20T16:48:07;93524.22;;;18.95;100.00
53522;BME280;39398;48.382;9.802;2023-05-20T16:53:08;93524.78;;;18.75;100.00
53522;BME280;39398;48.382;9.802;2023-05-20T16:58:10;93527.47;;;19.02;100.00
53522;BME280;39398;48.382;9.802;2023-05-20T17:03:13;93530.16;;;19.02;100.00
53522;BME280;39398;48.382;9.802;2023-05-20T17:08:15;93524.91;;;18.64;100.00
53522;BME280;39398;48.382;9.802;2023-05-20T17:13:16;93532.75;;;18.70;100.00
53522;BME280;39398;48.382;9.802;2023-05-20T17:18:19;93539.72;;;18.49;100.00
53522;BME280;39398;48.382;9.802;2023-05-20T17:23:21;93541.81;;;18.69;100.00
53522;BME280;39398;48.382;9.802;2023-05-20T17:28:22;93536.31;;;18.54;100.00
53522;BME280;39398;48.382;9.802;2023-05-20T17:33:25;93547.91;;;18.43;100.00
53522;BME280;39398;48.382;9.802;2023-05-20T17:38:27;93543.44;;;18.26;100.00
53522;BME280;39398;48.382;9.802;2023-05-20T17:43:29;93543.31;;;18.16;100.00
53522;BME280;39398;48.382;9.802;2023-05-20T17:48:32;93538.50;;;18.18;100.00
53522;BME280;39398;48.382;9.802;2023-05-20T17:53:33;93543.81;;;17.96;100.00
53522;BME280;39398;48.382;9.802;2023-05-20T17:58:35;93543.50;;;18.09;100.00
53522;BME280;39398;48.382;9.802;2023-05-20T18:03:38;93549.78;;;18.20;100.00
53522;BME280;39398;48.382;9.802;2023-05-20T18:08:40;93547.16;;;17.86;100.00
53522;BME280;39398;48.382;9.802;2023-05-20T18:13:41;93546.38;;;17.69;100.00
53522;BME280;39398;48.382;9.802;2023-05-20T18:18:45;93551.78;;;17.74;100.00
53522;BME280;39398;48.382;9.802;2023-05-20T18:23:47;93550.50;;;17.94;100.00
53522;BME280;39398;48.382;9.802;2023-05-20T18:28:48;93549.47;;;17.78;100.00
53522;BME280;39398;48.382;9.802;2023-05-20T18:33:51;93556.88;;;17.42;100.00
53522;BME280;39398;48.382;9.802;2023-05-20T18:38:53;93559.84;;;17.29;100.00
53522;BME280;39398;48.382;9.802;2023-05-20T18:43:54;93562.78;;;17.27;100.00
53522;BME280;39398;48.382;9.802;2023-05-20T18:48:57;93562.34;;;17.02;100.00
53522;BME280;39398;48.382;9.802;2023-05-20T18:53:59;93568.63;;;16.95;100.00
53522;BME280;39398;48.382;9.802;2023-05-20T18:59:01;93565.19;;;16.83;100.00
53522;BME280;39398;48.382;9.802;2023-05-20T19:04:04;93570.16;;;16.91;100.00
53522;BME280;39398;48.382;9.802;2023-05-20T19:09:06;93576.53;;;16.90;100.00
53522;BME280;39398;48.382;9.802;2023-05-20T19:14:07;93574.44;;;16.92;100.00
53522;BME280;39398;48.382;9.802;2023-05-20T19:19:10;93580.06;;;16.79;100.00
53522;BME280;39398;48.382;9.802;2023-05-20T19:24:12;93586.81;;;16.58;100.00
53522;BME280;39398;48.382;9.802;2023-05-20T19:29:13;93572.97;;;16.44;100.00
53522;BME280;39398;48.382;9.802;2023-05-20T19:34:16;93583.81;;;16.55;100.00
53522;BME280;39398;48.382;9.802;2023-05-20T19:39:18;93584.75;;;16.48;100.00
53522;BME280;39398;48.382;9.802;2023-05-20T19:44:21;93581.47;;;16.18;100.00
53522;BME280;39398;48.382;9.802;2023-05-20T19:49:24;93587.47;;;16.13;100.00
53522;BME280;39398;48.382;9.802;2023-05-20T19:54:26;93586.91;;;16.11;100.00
53522;BME280;39398;48.382;9.802;2023-05-20T19:59:28;93584.28;;;15.99;100.00
53522;BME280;39398;48.382;9.802;2023-05-20T20:04:31;93581.13;;;16.02;100.00
53522;BME280;39398;48.382;9.802;2023-05-20T20:09:33;93587.72;;;15.88;100.00
53522;BME280;39398;48.382;9.802;2023-05-20T20:14:34;93592.03;;;15.77;100.00
53522;BME280;39398;48.382;9.802;2023-05-20T20:19:37;93587.94;;;15.98;100.00
53522;BME280;39398;48.382;9.802;2023-05-20T20:24:39;93582.31;;;15.83;100.00
53522;BME280;39398;48.382;9.802;2023-05-20T20:29:41;93594.09;;;15.75;100.00
53522;BME280;39398;48.382;9.802;2023-05-20T20:34:44;93579.16;;;15.51;100.00
53522;BME280;39398;48.382;9.802;2023-05-20T20:39:45;93586.66;;;15.54;100.00
53522;BME280;39398;48.382;9.802;2023-05-20T20:44:47;93588.50;;;15.53;100.00
53522;BME280;39398;48.382;9.802;2023-05-20T20:49:50;93584.69;;;15.61;100.00
53522;BME280;39398;48.382;9.802;2023-05-20T20:54:52;93579.25;;;15.56;100.00
53522;BME280;39398;48.382;9.802;2023-05-20T20:59:53;93580.34;;;15.13;100.00
53522;BME280;39398;48.382;9.802;2023-05-20T21:04:56;93577.09;;;15.11;100.00
53522;BME280;39398;48.382;9.802;2023-05-20T21:09:58;93561.06;;;15.29;100.00
53522;BME280;39398;48.382;9.802;2023-05-20T21:15:00;93561.00;;;15.06;100.00
53522;BME280;39398;48.382;9.802;2023-05-20T21:20:03;93557.06;;;14.97;100.00
53522;BME280;39398;48.382;9.802;2023-05-20T21:25:06;93553.28;;;15.04;100.00
53522;BME280;39398;48.382;9.802;2023-05-20T21:30:08;93555.72;;;15.18;100.00
53522;BME280;39398;48.382;9.802;2023-05-20T21:35:11;93550.19;;;15.31;100.00
53522;BME280;39398;48.382;9.802;2023-05-20T21:40:13;93548.81;;;15.28;100.00
53522;BME280;39398;48.382;9.802;2023-05-20T21:45:15;93546.44;;;15.08;100.00
53522;BME280;39398;48.382;9.802;2023-05-20T21:50:18;93548.19;;;15.15;100.00
53522;BME280;39398;48.382;9.802;2023-05-20T21:55:19;93549.72;;;14.80;100.00
53522;BME280;39398;48.382;9.802;2023-05-20T22:00:21;93549.88;;;14.85;100.00
53522;BME280;39398;48.382;9.802;2023-05-20T22:05:24;93540.34;;;14.48;100.00
53522;BME280;39398;48.382;9.802;2023-05-20T22:10:25;93533.72;;;14.57;100.00
53522;BME280;39398;48.382;9.802;2023-05-20T22:15:27;93530.75;;;14.65;100.00
53522;BME280;39398;48.382;9.802;2023-05-20T22:20:30;93533.25;;;14.41;100.00
53522;BME280;39398;48.382;9.802;2023-05-20T22:25:31;93514.00;;;14.64;100.00
53522;BME280;39398;48.382;9.802;2023-05-20T22:30:33;93517.38;;;14.23;100.00
53522;BME280;39398;48.382;9.802;2023-05-20T22:35:36;93519.22;;;14.71;100.00
53522;BME280;39398;48.382;9.802;2023-05-20T22:40:38;93515.28;;;14.43;100.00
53522;BME280;39398;48.382;9.802;2023-05-20T22:45:40;93512.66;;;14.07;100.00
53522;BME280;39398;48.382;9.802;2023-05-20T22:50:43;93501.59;;;14.10;100.00
53522;BME280;39398;48.382;9.802;2023-05-20T22:55:44;93492.19;;;14.44;100.00
53522;BME280;39398;48.382;9.802;2023-05-20T23:00:46;93495.97;;;14.36;100.00
53522;BME280;39398;48.382;9.802;2023-05-20T23:05:49;93490.16;;;14.58;100.00
53522;BME280;39398;48.382;9.802;2023-05-20T23:10:50;93475.72;;;14.24;100.00
53522;BME280;39398;48.382;9.802;2023-05-20T23:15:52;93486.66;;;13.97;100.00
53522;BME280;39398;48.382;9.802;2023-05-20T23:20:55;93487.59;;;14.21;100.00
53522;BME280;39398;48.382;9.802;2023-05-20T23:25:57;93481.03;;;14.05;100.00
53522;BME280;39398;48.382;9.802;2023-05-20T23:30:59;93486.72;;;13.90;100.00
53522;BME280;39398;48.382;9.802;2023-05-20T23:36:02;93483.50;;;13.88;100.00
53522;BME280;39398;48.382;9.802;2023-05-20T23:41:04;93485.34;;;13.69;100.00
53522;BME280;39398;48.382;9.802;2023-05-20T23:46:06;93482.53;;;13.46;100.00
53522;BME280;39398;48.382;9.802;2023-05-20T23:51:09;93476.25;;;13.59;100.00
53522;BME280;39398;48.382;9.802;2023-05-20T23:56:11;93478.56;;;13.55;100.00
